Time;durP1;ratioP1;P1;durP2;ratioP2;P2;SDS_P1;SDS_P2;PMS_P1;PMS_P2;Temp;Humidity;BMP_temperature;BMP_pressure;BME280_temperature;BME280_humidity;BME280_pressure;Samples;Min_cycle;Max_cycle;Signal;HPM_P1;HPM_P2
2021/12/21 00:00:55;;;;;;;8.63;3.47;;;-3.10;99.90;;;-5.27;100.00;102361.09;2570062;30;137481;-39
2021/12/21 00:03:24;;;;;;;7.82;3.38;;;-3.10;99.90;;;-5.26;100.00;102362.81;2570396;30;138407;-39
2021/12/21 00:05:53;;;;;;;7.93;3.40;;;-3.10;99.90;;;-5.32;100.00;102354.25;2569234;30;137848;-38
2021/12/21 00:08:21;;;;;;;6.47;2.80;;;-3.10;99.90;;;-5.31;100.00;102355.97;2570811;30;138383;-38
2021/12/21 00:11:09;;;;;;;10.95;3.58;;;-3.10;99.90;;;-5.32;100.00;102351.56;2568587;30;137519;-39
2021/12/21 00:13:54;;;;;;;10.05;3.55;;;-3.20;99.90;;;-5.35;100.00;102348.13;2566494;30;138797;-38
2021/12/21 00:23:59;;;;;;;;;;;-3.20;99.90;;;-5.38;100.00;102348.28;2568219;30;137289;-39
2021/12/21 00:26:27;;;;;;;8.68;3.20;;;-3.20;99.90;;;-5.44;100.00;102337.91;2569895;30;137471;-39
2021/12/21 00:29:00;;;;;;;;;;;-3.20;99.90;;;-5.44;100.00;102345.03;2569957;30;138237;-39
2021/12/21 00:31:32;;;;;;;8.70;3.28;;;-3.30;99.90;;;-5.49;100.00;102347.91;2570792;30;137695;-39
2021/12/21 00:34:01;;;;;;;7.45;3.15;;;-3.30;99.90;;;-5.51;100.00;102342.66;2569648;30;138325;-40
2021/12/21 00:36:30;;;;;;;7.20;3.17;;;-3.30;99.90;;;-5.55;100.00;102345.53;2568104;30;137534;-39
2021/12/21 00:39:06;;;;;;;9.85;3.58;;;-3.30;99.90;;;-5.56;100.00;102338.50;2569908;30;137128;-40
2021/12/21 00:41:34;;;;;;;10.65;3.50;;;-3.40;99.90;;;-5.48;100.00;102336.34;2571008;30;137455;-39
2021/12/21 00:44:03;;;;;;;12.18;3.95;;;-3.30;99.90;;;-5.46;100.00;102341.56;2568819;30;137240;-42
2021/12/21 00:46:30;;;;;;;10.30;3.78;;;-3.30;99.90;;;-5.54;100.00;102344.59;2569109;30;137583;-41
2021/12/21 00:49:11;;;;;;;10.48;3.40;;;-3.30;99.90;;;-5.57;100.00;102332.31;2569205;30;138679;-38
2021/12/21 00:51:40;;;;;;;7.85;3.25;;;-3.30;99.90;;;-5.58;100.00;102335.91;2569017;30;137505;-39
2021/12/21 00:54:09;;;;;;;6.88;3.00;;;-3.40;99.90;;;-5.60;100.00;102339.53;2569159;30;139453;-50
2021/12/21 00:56:37;;;;;;;7.95;3.17;;;-3.40;99.90;;;-5.64;100.00;102331.72;2569442;30;136807;-39
2021/12/21 00:59:05;;;;;;;;;;;-3.40;99.90;;;-5.63;100.00;102335.25;2569663;30;138769;-39
2021/12/21 01:01:36;;;;;;;10.10;3.47;;;-3.40;99.90;;;-5.59;100.00;102334.16;2571962;30;136962;-39
2021/12/21 01:04:08;;;;;;;8.23;3.20;;;-3.40;99.90;;;-5.58;100.00;102332.34;2569753;30;138170;-39
2021/12/21 01:06:43;;;;;;;7.65;3.53;;;-3.40;99.90;;;-5.64;100.00;102323.72;2568507;30;139343;-40
2021/12/21 01:09:37;;;;;;;8.80;3.38;;;-3.40;99.90;;;-5.70;100.00;102334.66;2568901;30;138286;-41
2021/12/21 01:12:07;;;;;;;10.75;3.30;;;-3.50;99.90;;;-5.75;100.00;102330.47;2568842;30;136753;-40
2021/12/21 01:17:31;;;;;;;8.10;3.13;;;-3.50;99.90;;;-5.74;100.00;102324.22;2572763;30;137519;-39
2021/12/21 01:20:09;;;;;;;11.75;3.55;;;-3.50;99.90;;;-5.79;100.00;102324.44;2568252;30;138271;-40
2021/12/21 01:35:40;;;;;;;8.70;3.00;;;-3.60;99.90;;;-5.88;100.00;102330.16;2568848;30;138162;-39
2021/12/21 01:40:48;;;;;;;10.50;3.72;;;-3.70;99.90;;;-5.87;100.00;102327.44;2567495;30;138183;-41
2021/12/21 01:43:24;;;;;;;9.15;3.30;;;-3.70;99.90;;;-5.92;100.00;102321.47;2567238;30;137621;-41
2021/12/21 01:51:24;;;;;;;7.20;3.15;;;-3.70;99.90;;;-5.94;100.00;102326.00;2568585;30;139026;-41
2021/12/21 01:53:53;;;;;;;11.02;3.90;;;-3.70;99.90;;;-5.95;100.00;102313.63;2569434;30;138171;-41
2021/12/21 01:56:22;;;;;;;8.07;3.67;;;-3.80;99.90;;;-5.96;100.00;102318.06;2569887;30;137464;-41
2021/12/21 01:58:51;;;;;;;6.93;3.20;;;-3.80;99.90;;;-5.98;100.00;102317.28;2569483;30;137338;-43
2021/12/21 02:01:22;;;;;;;8.90;3.65;;;-3.80;99.90;;;-5.99;100.00;102323.53;2568560;30;138141;-41
2021/12/21 02:03:50;;;;;;;10.07;3.65;;;-3.80;99.90;;;-5.97;100.00;102312.81;2570513;30;138774;-40
2021/12/21 02:06:23;;;;;;;9.52;3.58;;;-3.80;99.90;;;-5.99;100.00;102323.53;2568585;30;139289;-41
2021/12/21 02:08:51;;;;;;;9.75;3.80;;;-3.80;99.90;;;-6.03;100.00;102323.75;2571043;30;138082;-42
2021/12/21 02:11:20;;;;;;;8.20;3.70;;;-3.80;99.90;;;-6.04;100.00;102325.56;2569779;30;138372;-41
2021/12/21 02:13:50;;;;;;;9.52;3.60;;;-3.80;99.90;;;-6.07;100.00;102317.72;2567200;30;137229;-40
2021/12/21 02:16:32;;;;;;;6.55;3.15;;;-3.80;99.90;;;-6.11;100.00;102313.44;2566557;30;139369;-41
2021/12/21 02:19:08;;;;;;;7.68;3.58;;;-3.90;99.90;;;-6.18;100.00;102301.38;2570187;30;138320;-40
2021/12/21 02:21:43;;;;;;;8.43;3.65;;;-3.90;99.90;;;-6.11;100.00;102308.13;2568509;30;137081;-40
2021/12/21 02:24:16;;;;;;;9.68;3.80;;;-3.90;99.90;;;-6.10;100.00;102313.38;2569224;30;138258;-41
2021/12/21 02:31:50;;;;;;;9.05;3.58;;;-3.90;99.90;;;-6.14;100.00;102302.94;2569111;30;138342;-41
2021/12/21 02:34:20;;;;;;;8.38;3.40;;;-3.90;99.90;;;-6.17;100.00;102300.44;2568150;30;136937;-37
2021/12/21 02:36:51;;;;;;;8.48;3.30;;;-3.90;99.90;;;-6.16;100.00;102305.69;2566852;30;139966;-41
2021/12/21 02:39:20;;;;;;;8.73;3.70;;;-3.90;99.90;;;-6.17;100.00;102300.44;2570193;30;136634;-40
2021/12/21 02:41:48;;;;;;;10.60;3.40;;;-4.00;99.90;;;-6.17;100.00;102298.66;2570312;30;139384;-40
2021/12/21 02:44:16;;;;;;;7.93;3.30;;;-4.00;99.90;;;-6.16;100.00;102300.38;2568899;30;138389;-39
2021/12/21 02:46:45;;;;;;;10.85;3.30;;;-4.00;99.90;;;-6.24;100.00;102295.38;2569604;30;138958;-44
2021/12/21 02:49:13;;;;;;;8.65;3.55;;;-4.00;99.90;;;-6.29;100.00;102302.69;2566925;30;137105;-40
2021/12/21 02:51:44;;;;;;;7.22;3.13;;;-4.00;99.90;;;-6.30;100.00;102297.44;2569462;30;138466;-40
2021/12/21 02:54:13;;;;;;;14.07;3.65;;;-4.00;99.90;;;-6.28;100.00;102298.25;2570043;30;137308;-40
2021/12/21 02:56:41;;;;;;;7.57;3.25;;;-4.10;99.90;;;-6.29;100.00;102305.38;2570652;30;137337;-41
2021/12/21 02:59:10;;;;;;;9.90;3.22;;;-4.10;99.90;;;-6.36;100.00;102293.28;2568364;30;137073;-40
2021/12/21 03:01:39;;;;;;;8.60;3.53;;;-4.10;99.90;;;-6.40;100.00;102289.88;2569765;30;138257;-41
2021/12/21 03:04:08;;;;;;;7.28;3.35;;;-4.10;99.90;;;-6.33;100.00;102305.53;2567942;30;137365;-40
2021/12/21 03:09:43;;;;;;;10.88;3.85;;;-4.10;99.90;;;-6.41;100.00;102289.94;2567546;30;139854;-40
2021/12/21 03:14:37;;;;;;;7.47;3.08;;;-4.10;99.90;;;-6.32;100.00;102300.19;2567164;30;138195;-40
2021/12/21 03:17:06;;;;;;;9.52;3.90;;;-4.10;99.90;;;-6.34;100.00;102294.06;2568655;30;138041;-41
2021/12/21 03:19:34;;;;;;;10.18;3.83;;;-4.10;99.90;;;-6.35;100.00;102295.00;2568346;30;137562;-41
2021/12/21 03:22:02;;;;;;;;;;;-4.10;99.90;;;-6.36;100.00;102293.28;2566322;30;138416;-40
2021/12/21 03:24:29;;;;;;;8.65;3.83;;;-4.10;99.90;;;-6.36;100.00;102290.63;2567597;30;137125;-40
2021/12/21 03:26:57;;;;;;;10.35;4.45;;;-4.10;99.90;;;-6.36;100.00;102290.63;2567884;30;138314;-41
2021/12/21 03:29:27;;;;;;;6.63;2.83;;;-4.10;99.90;;;-6.33;100.00;102302.88;2567147;30;137428;-40
2021/12/21 03:31:55;;;;;;;6.53;2.85;;;-4.10;99.90;;;-6.34;100.00;102303.81;2567068;30;137377;-40
2021/12/21 03:34:23;;;;;;;7.28;2.83;;;-4.10;99.90;;;-6.39;100.00;102304.00;2566607;30;137336;-40
2021/12/21 03:36:51;;;;;;;7.30;3.28;;;-4.20;99.90;;;-6.36;100.00;102303.91;2567061;30;139210;-40
2021/12/21 03:39:20;;;;;;;14.63;4.13;;;-4.20;99.90;;;-6.42;100.00;102290.84;2567458;30;137336;-41
2021/12/21 03:41:56;;;;;;;6.05;2.90;;;-4.20;99.90;;;-6.45;100.00;102296.31;2568195;30;138274;-40
2021/12/21 03:44:27;;;;;;;6.30;3.20;;;-4.20;99.90;;;-6.47;100.00;102287.53;2568025;30;137368;-40
2021/12/21 03:46:56;;;;;;;7.97;3.10;;;-4.30;99.90;;;-6.47;100.00;102290.19;2567645;30;137119;-40
2021/12/21 03:52:05;;;;;;;7.80;3.03;;;-4.30;99.90;;;-6.48;100.00;102286.69;2566660;30;137442;-40
2021/12/21 03:54:34;;;;;;;7.63;3.42;;;-4.30;99.90;;;-6.52;100.00;102285.94;2567733;30;137173;-41
2021/12/21 03:57:02;;;;;;;7.25;2.97;;;-4.30;99.90;;;-6.56;100.00;102292.31;2566682;30;137456;-40
2021/12/21 03:59:30;;;;;;;9.05;3.63;;;-4.30;99.90;;;-6.56;100.00;102292.31;2565762;30;137414;-40
2021/12/21 04:01:59;;;;;;;9.27;3.28;;;-4.30;99.90;;;-6.55;100.00;102290.53;2568561;30;138389;-40
2021/12/21 04:04:27;;;;;;;8.38;3.08;;;-4.30;99.90;;;-6.49;100.00;102282.31;2566676;30;137678;-40
2021/12/21 04:06:55;;;;;;;5.60;2.95;;;-4.30;99.90;;;-6.60;100.00;102274.81;2567055;30;138471;-40
2021/12/21 04:09:22;;;;;;;;;;;-4.30;99.90;;;-6.67;100.00;102276.84;2567658;30;136785;-41
2021/12/21 04:11:50;;;;;;;7.97;3.10;;;-4.40;99.90;;;-6.76;100.00;102279.91;2568010;30;138237;-40
2021/12/21 04:14:18;;;;;;;8.30;3.45;;;-4.40;99.90;;;-6.82;100.00;102270.38;2567063;30;137730;-40
2021/12/21 04:16:46;;;;;;;6.53;3.33;;;-4.50;99.90;;;-6.87;100.00;102267.06;2566560;30;139139;-40
2021/12/21 04:19:13;;;;;;;11.27;3.50;;;-4.50;99.90;;;-6.95;100.00;102274.44;2568766;30;137678;-40
2021/12/21 04:21:41;;;;;;;10.27;3.10;;;-4.60;99.90;;;-7.03;100.00;102268.59;2568114;30;138587;-40
2021/12/21 04:24:09;;;;;;;10.35;3.00;;;-4.70;99.90;;;-6.97;100.00;102265.69;2568779;30;138435;-41
2021/12/21 04:26:36;;;;;;;8.95;3.20;;;-4.70;99.90;;;-6.93;100.00;102259.31;2567367;30;138429;-40
2021/12/21 04:29:04;;;;;;;9.32;3.22;;;-4.60;99.90;;;-6.81;100.00;102258.84;2567920;30;137682;-40
2021/12/21 04:31:32;;;;;;;8.07;3.10;;;-4.60;99.90;;;-6.78;100.00;102265.78;2568848;30;137840;-40
2021/12/21 04:34:00;;;;;;;;;;;-4.60;99.90;;;-6.78;100.00;102268.44;2567874;30;136815;-40
2021/12/21 04:36:29;;;;;;;7.90;3.03;;;-4.60;99.90;;;-6.72;100.00;102264.69;2568558;30;138318;-40
2021/12/21 04:38:59;;;;;;;7.25;2.95;;;-4.50;99.90;;;-6.74;100.00;102256.78;2568384;30;136963;-41
2021/12/21 04:41:28;;;;;;;5.68;3.17;;;-4.50;99.90;;;-6.75;100.00;102260.38;2567688;30;138971;-40
2021/12/21 04:43:59;;;;;;;6.43;3.28;;;-4.50;99.90;;;-6.75;100.00;102256.84;2568401;30;137151;-40
2021/12/21 04:46:27;;;;;;;7.93;3.13;;;-4.50;99.90;;;-6.74;100.00;102258.56;2567247;30;138232;-40
2021/12/21 04:48:55;;;;;;;9.18;3.50;;;-4.50;99.90;;;-6.71;100.00;102255.78;2568820;30;137625;-40
2021/12/21 04:51:23;;;;;;;6.93;3.15;;;-4.50;99.90;;;-6.77;100.00;102256.91;2568459;30;138347;-40
2021/12/21 04:53:51;;;;;;;7.70;3.30;;;-4.50;99.90;;;-6.70;100.00;102252.19;2565365;30;137453;-40
2021/12/21 04:56:18;;;;;;;8.07;3.17;;;-4.50;99.90;;;-6.72;100.00;102246.97;2568562;30;137468;-40
2021/12/21 04:58:46;;;;;;;8.27;2.75;;;-4.50;99.90;;;-6.74;100.00;102258.56;2567179;30;136628;-40
2021/12/21 05:01:14;;;;;;;8.10;2.88;;;-4.50;99.90;;;-6.75;100.00;102267.47;2568453;30;139241;-40
2021/12/21 05:03:42;;;;;;;7.57;3.50;;;-4.50;99.90;;;-6.75;100.00;102259.50;2566303;30;137430;-40
2021/12/21 05:06:10;;;;;;;7.95;2.80;;;-4.50;99.90;;;-6.75;100.00;102264.81;2567540;30;139120;-40
2021/12/21 05:08:39;;;;;;;6.65;2.97;;;-4.50;99.90;;;-6.77;100.00;102264.84;2566748;30;138128;-40
2021/12/21 05:11:08;;;;;;;7.55;2.88;;;-4.50;99.90;;;-6.81;100.00;102265.91;2569428;30;138165;-40
2021/12/21 05:13:39;;;;;;;5.72;2.65;;;-4.50;99.90;;;-6.84;100.00;102255.44;2565731;30;137827;-40
2021/12/21 05:16:06;;;;;;;5.63;2.50;;;-4.60;99.90;;;-6.88;100.00;102252.06;2567297;30;138613;-40
2021/12/21 05:18:35;;;;;;;8.50;2.85;;;-4.60;99.90;;;-6.89;100.00;102260.94;2565287;30;136867;-40
2021/12/21 05:21:04;;;;;;;7.07;2.97;;;-4.60;99.90;;;-6.89;100.00;102265.38;2568733;30;137312;-40
2021/12/21 05:23:32;;;;;;;13.82;3.33;;;-4.70;99.90;;;-6.88;100.00;102262.69;2567959;30;136930;-40
2021/12/21 05:25:59;;;;;;;;;;;-4.70;99.90;;;-6.90;100.00;102268.97;2568430;30;139238;-40
2021/12/21 05:28:27;;;;;;;3.92;2.10;;;-4.60;99.90;;;-6.94;100.00;102273.53;2568155;30;136970;-40
2021/12/21 05:30:54;;;;;;;5.57;2.85;;;-4.70;99.90;;;-6.93;100.00;102264.63;2568160;30;138361;-40
2021/12/21 05:33:22;;;;;;;7.85;3.20;;;-4.70;99.90;;;-6.95;100.00;102271.81;2568021;30;138330;-40
2021/12/21 05:35:50;;;;;;;6.28;2.88;;;-4.70;99.90;;;-6.95;100.00;102269.16;2566612;30;139252;-40
2021/12/21 05:38:24;;;;;;;6.38;2.95;;;-4.70;99.90;;;-7.02;100.00;102276.50;2567878;30;138278;-40
2021/12/21 05:40:53;;;;;;;9.95;2.70;;;-4.70;99.90;;;-7.08;100.00;102267.00;2566851;30;138228;-40
2021/12/21 05:43:21;;;;;;;7.53;3.08;;;-4.80;99.90;;;-7.03;100.00;102271.25;2567922;30;137012;-40
2021/12/21 05:45:49;;;;;;;;;;;-4.80;99.90;;;-7.02;100.00;102265.91;2566029;30;138825;-41
2021/12/21 05:48:16;;;;;;;5.10;2.05;;;-4.80;99.90;;;-6.99;100.00;102272.84;2567520;30;137421;-40
2021/12/21 05:50:44;;;;;;;5.72;2.33;;;-4.80;99.90;;;-7.00;100.00;102268.47;2568560;30;138248;-40
2021/12/21 05:53:11;;;;;;;6.85;2.75;;;-4.80;99.90;;;-7.00;100.00;102273.78;2568583;30;137521;-40
2021/12/21 05:55:39;;;;;;;7.05;2.58;;;-4.80;99.90;;;-7.04;100.00;102273.03;2568257;30;138354;-40
2021/12/21 05:58:07;;;;;;;7.25;2.72;;;-4.80;99.90;;;-7.06;100.00;102282.84;2567944;30;136874;-40
2021/12/21 06:00:36;;;;;;;6.35;2.30;;;-4.80;99.90;;;-7.06;100.00;102284.66;2568617;30;138266;-40
2021/12/21 06:03:03;;;;;;;10.07;2.53;;;-4.80;99.90;;;-7.05;100.00;102278.41;2568174;30;136787;-40
2021/12/21 06:05:31;;;;;;;5.45;2.85;;;-4.80;99.90;;;-7.05;100.00;102287.22;2565251;30;138500;-40
2021/12/21 06:08:03;;;;;;;5.38;2.72;;;-4.80;99.90;;;-7.06;100.00;102289.97;2568668;30;138235;-40
2021/12/21 06:10:35;;;;;;;5.35;2.40;;;-4.80;99.90;;;-7.09;100.00;102283.84;2567558;30;137627;-40
2021/12/21 06:26:17;;;;;;;5.45;2.60;;;-4.90;99.90;;;-7.10;100.00;102290.09;2567724;30;137752;-40
2021/12/21 06:28:46;;;;;;;5.65;2.95;;;-4.90;99.90;;;-7.09;100.00;102286.50;2568091;30;137452;-41
2021/12/21 06:31:14;;;;;;;4.63;2.38;;;-4.90;99.90;;;-7.07;100.00;102281.13;2568569;30;137314;-40
2021/12/21 06:33:42;;;;;;;5.78;2.83;;;-4.80;99.90;;;-7.18;100.00;102268.28;2568109;30;137444;-40
2021/12/21 06:36:10;;;;;;;5.18;2.58;;;-4.90;99.90;;;-7.15;100.00;102281.44;2568119;30;139062;-40
2021/12/21 06:38:38;;;;;;;9.80;3.25;;;-4.90;99.90;;;-7.15;100.00;102283.22;2568235;30;137062;-40
2021/12/21 06:41:06;;;;;;;9.88;2.80;;;-4.90;99.90;;;-7.19;100.00;102281.63;2568198;30;136948;-40
2021/12/21 06:43:34;;;;;;;;;;;-4.90;99.90;;;-7.25;100.00;102282.72;2567282;30;137082;-40
2021/12/21 06:54:25;;;;;;;9.40;3.10;;;-5.00;99.90;;;-7.22;100.00;102282.59;2564908;30;137706;-40
2021/12/21 06:56:53;;;;;;;6.28;2.72;;;-5.00;99.90;;;-7.22;100.00;102285.25;2566862;30;139064;-40
2021/12/21 06:59:20;;;;;;;7.35;3.13;;;-5.00;99.90;;;-7.25;100.00;102278.28;2565084;30;137149;-40
2021/12/21 07:01:49;;;;;;;4.85;2.47;;;-5.00;99.90;;;-7.28;100.00;102278.41;2567744;30;138352;-40
2021/12/21 07:04:20;;;;;;;6.53;2.60;;;-5.00;99.90;;;-7.24;100.00;102287.09;2567801;30;137120;-40
2021/12/21 07:06:48;;;;;;;7.82;2.55;;;-5.00;99.90;;;-7.24;100.00;102279.16;2566996;30;137369;-40
2021/12/21 07:09:23;;;;;;;6.57;2.95;;;-5.00;99.90;;;-7.26;100.00;102286.31;2567498;30;137334;-40
2021/12/21 07:12:10;;;;;;;9.32;2.60;;;-5.00;99.90;;;-7.26;100.00;102283.66;2567206;30;139128;-40
2021/12/21 07:20:11;;;;;;;5.55;2.60;;;-5.10;99.90;;;-7.27;100.00;102288.09;2566764;30;137696;-40
2021/12/21 07:22:39;;;;;;;10.00;3.50;;;-5.00;99.90;;;-7.29;100.00;102289.06;2567270;30;138494;-41
2021/12/21 07:25:07;;;;;;;6.00;2.75;;;-5.00;99.90;;;-7.22;100.00;102286.13;2566455;30;138387;-40
2021/12/21 07:27:36;;;;;;;9.30;2.90;;;-5.00;99.90;;;-7.18;100.00;102293.97;2566909;30;137885;-40
2021/12/21 07:30:05;;;;;;;5.25;2.45;;;-5.00;99.90;;;-7.10;100.00;102292.75;2567044;30;138330;-40
2021/12/21 07:32:34;;;;;;;4.93;2.30;;;-4.90;99.90;;;-7.15;100.00;102289.41;2567401;30;137330;-40
2021/12/21 07:35:02;;;;;;;5.18;2.42;;;-5.00;99.90;;;-7.20;100.00;102293.16;2565827;30;137456;-40
2021/12/21 07:37:30;;;;;;;7.47;2.75;;;-5.00;99.90;;;-7.24;100.00;102281.78;2568299;30;137744;-40
2021/12/21 07:39:57;;;;;;;6.80;2.95;;;-5.00;99.90;;;-7.25;100.00;102282.72;2565539;30;137473;-40
2021/12/21 07:42:25;;;;;;;7.30;2.80;;;-5.00;99.90;;;-7.27;100.00;102289.88;2568657;30;138376;-40
2021/12/21 07:44:53;;;;;;;6.95;2.67;;;-5.10;99.90;;;-7.26;100.00;102291.59;2566996;30;138324;-40
2021/12/21 07:47:20;;;;;;;8.13;2.70;;;-5.10;99.90;;;-7.26;100.00;102289.84;2567990;30;139257;-40
2021/12/21 07:49:49;;;;;;;8.93;2.85;;;-5.00;99.90;;;-7.28;100.00;102296.09;2569015;30;138453;-40
2021/12/21 07:52:17;;;;;;;7.15;2.45;;;-5.10;99.90;;;-7.26;100.00;102291.59;2568668;30;137381;-40
2021/12/21 07:54:45;;;;;;;7.15;2.53;;;-5.10;99.90;;;-7.19;100.00;102295.72;2565834;30;137676;-40
2021/12/21 07:57:13;;;;;;;5.78;2.63;;;-5.00;99.90;;;-7.19;100.00;102292.22;2568713;30;138370;-40
2021/12/21 07:59:41;;;;;;;7.85;2.95;;;-5.00;99.90;;;-7.16;100.00;102294.75;2568129;30;138053;-40
2021/12/21 08:02:12;;;;;;;5.35;2.50;;;-5.00;99.90;;;-7.16;100.00;102292.09;2568916;30;137474;-40
2021/12/21 08:04:44;;;;;;;7.45;2.50;;;-5.00;99.90;;;-7.15;100.00;102297.38;2567695;30;137384;-40
2021/12/21 08:07:17;;;;;;;5.45;2.58;;;-4.90;99.90;;;-7.13;100.00;102298.16;2568217;30;138017;-41
2021/12/21 08:09:48;;;;;;;5.18;2.63;;;-4.90;99.90;;;-7.05;100.00;102302.31;2568956;30;138211;-40
2021/12/21 08:12:17;;;;;;;7.25;2.30;;;-4.90;99.90;;;-7.00;100.00;102306.50;2565781;30;139165;-40
2021/12/21 08:14:51;;;;;;;6.05;2.67;;;-4.80;99.90;;;-6.99;100.00;102305.56;2567836;30;137313;-40
2021/12/21 08:17:20;;;;;;;7.22;2.60;;;-4.80;99.90;;;-6.96;100.00;102299.25;2568836;30;139014;-41
2021/12/21 08:19:48;;;;;;;6.80;2.50;;;-4.80;99.90;;;-6.85;100.00;102302.38;2568390;30;137339;-40
2021/12/21 08:22:16;;;;;;;6.30;2.63;;;-4.70;99.90;;;-6.87;100.00;102306.00;2568207;30;137944;-40
2021/12/21 08:24:44;;;;;;;4.90;2.45;;;-4.70;99.90;;;-6.75;100.00;102309.94;2566856;30;137730;-40
2021/12/21 08:27:12;;;;;;;5.43;2.47;;;-4.70;99.90;;;-6.70;100.00;102300.88;2568195;30;138132;-40
2021/12/21 08:29:39;;;;;;;6.72;2.90;;;-4.60;99.90;;;-6.63;100.00;102311.22;2568630;30;136657;-40
2021/12/21 08:32:08;;;;;;;7.25;3.03;;;-4.60;99.90;;;-6.58;100.00;102314.56;2567858;30;137504;-40
2021/12/21 08:34:36;;;;;;;7.55;3.33;;;-4.50;99.90;;;-6.55;100.00;102309.09;2568590;30;136857;-40
2021/12/21 08:37:04;;;;;;;4.50;2.35;;;-4.40;99.90;;;-6.39;100.00;102320.81;2567607;30;139131;-40
2021/12/21 08:39:38;;;;;;;7.13;2.97;;;-4.40;99.90;;;-6.29;100.00;102317.75;2568364;30;137420;-40
2021/12/21 08:42:12;;;;;;;4.75;2.47;;;-4.30;99.90;;;-6.14;100.00;102318.91;2568213;30;139206;-40
2021/12/21 08:44:45;;;;;;;6.65;2.58;;;-4.20;99.90;;;-6.09;100.00;102309.81;2567089;30;137369;-40
2021/12/21 08:47:14;;;;;;;8.07;3.10;;;-4.10;99.90;;;-5.99;100.00;102319.97;2567927;30;139116;-40
2021/12/21 08:49:44;;;;;;;10.50;5.22;;;-4.00;99.90;;;-5.95;100.00;102321.59;2567459;30;136782;-40
2021/12/21 08:52:12;;;;;;;10.93;5.53;;;-4.00;99.90;;;-5.89;100.00;102320.44;2568235;30;138409;-40
2021/12/21 08:54:40;;;;;;;9.73;4.45;;;-3.90;99.90;;;-5.81;100.00;102315.66;2568171;30;137683;-40
2021/12/21 08:57:07;;;;;;;12.15;5.80;;;-3.80;99.90;;;-5.74;100.00;102316.22;2568944;30;137464;-40
2021/12/21 08:59:35;;;;;;;10.32;4.65;;;-3.70;99.90;;;-5.60;100.00;102307.63;2567648;30;138559;-40
2021/12/21 09:02:03;;;;;;;10.73;4.90;;;-3.70;99.90;;;-5.52;100.00;102310.81;2567616;30;138144;-40
2021/12/21 09:04:30;;;;;;;8.63;4.18;;;-3.60;99.90;;;-5.45;100.00;102304.28;2567747;30;137003;-40
2021/12/21 09:07:06;;;;;;;9.43;4.45;;;-3.50;99.90;;;-5.37;100.00;102310.09;2567963;30;138337;-40
2021/12/21 09:09:34;;;;;;;7.57;4.18;;;-3.40;99.90;;;-5.28;100.00;102315.94;2565154;30;137239;-38
2021/12/21 09:12:02;;;;;;;9.35;4.15;;;-3.40;99.90;;;-5.20;100.00;102311.94;2567474;30;138218;-38
2021/12/21 09:14:32;;;;;;;;;;;-3.30;99.90;;;-5.08;100.00;102310.50;2569101;30;137945;-38
2021/12/21 09:17:02;;;;;;;7.32;3.75;;;-3.20;99.90;;;-4.92;100.00;102299.13;2568263;30;137412;-38
2021/12/21 09:19:30;;;;;;;7.80;3.75;;;-3.10;99.90;;;-4.85;100.00;102305.03;2568209;30;136748;-38
2021/12/21 09:22:00;;;;;;;10.50;4.10;;;-2.90;99.90;;;-4.76;100.00;102304.56;2567614;30;139088;-38
2021/12/21 09:24:29;;;;;;;10.30;4.63;;;-2.90;99.90;;;-4.71;100.00;102307.00;2566865;30;137550;-38
2021/12/21 09:26:57;;;;;;;9.88;4.43;;;-2.80;99.90;;;-4.67;100.00;102301.41;2567132;30;139359;-38
2021/12/21 09:29:24;;;;;;;9.95;4.28;;;-2.70;99.90;;;-4.58;100.00;102307.25;2568472;30;137509;-38
2021/12/21 09:31:52;;;;;;;7.95;3.92;;;-2.70;99.90;;;-4.48;100.00;102305.84;2568022;30;138361;-38
2021/12/21 09:34:19;;;;;;;9.70;4.32;;;-2.60;99.90;;;-4.37;100.00;102298.19;2568208;30;137486;-38
2021/12/21 09:36:47;;;;;;;9.38;4.38;;;-2.50;99.90;;;-4.23;100.00;102300.13;2568136;30;138532;-38
2021/12/21 09:39:15;;;;;;;10.10;4.72;;;-2.40;99.90;;;-4.04;100.00;102299.16;2568147;30;137628;-38
2021/12/21 09:41:42;;;;;;;12.02;4.10;;;-2.20;99.90;;;-3.85;100.00;102298.19;2569359;30;139245;-38
2021/12/21 09:44:11;;;;;;;12.10;4.53;;;-2.10;99.90;;;-3.69;100.00;102301.75;2568199;30;137048;-38
2021/12/21 09:46:39;;;;;;;9.43;4.55;;;-1.90;99.90;;;-3.50;100.00;102300.75;2567437;30;138187;-38
2021/12/21 09:49:06;;;;;;;11.70;4.82;;;-1.80;99.90;;;-3.39;100.00;102302.81;2566224;30;138867;-38
2021/12/21 09:51:34;;;;;;;10.27;4.22;;;-1.60;99.90;;;-3.26;100.00;102309.22;2567755;30;139366;-38
2021/12/21 09:54:02;;;;;;;9.90;4.05;;;-1.50;99.90;;;-3.17;100.00;102307.84;2566545;30;137391;-38
2021/12/21 09:56:30;;;;;;;8.38;4.72;;;-1.40;99.90;;;-3.02;100.00;102300.78;2567727;30;137145;-39
2021/12/21 09:58:57;;;;;;;12.15;4.57;;;-1.30;99.90;;;-2.93;100.00;102302.91;2567210;30;136817;-38
2021/12/21 10:01:25;;;;;;;13.07;4.40;;;-1.20;99.90;;;-2.85;100.00;102294.47;2568183;30;138944;-38
2021/12/21 10:03:53;;;;;;;11.18;4.95;;;-1.00;99.90;;;-2.64;100.00;102310.22;2567237;30;137853;-38
2021/12/21 10:06:20;;;;;;;9.15;4.47;;;-0.90;99.90;;;-2.55;100.00;102304.31;2565478;30;137770;-38
2021/12/21 10:08:48;;;;;;;9.60;3.85;;;-0.80;99.90;;;-2.47;100.00;102303.88;2567781;30;136687;-38
2021/12/21 10:11:22;;;;;;;9.60;4.50;;;-0.70;99.90;;;-2.41;100.00;102303.50;2568008;30;137473;-38
2021/12/21 10:13:50;;;;;;;8.52;3.80;;;-0.70;99.90;;;-2.34;100.00;102299.50;2566650;30;140302;-38
2021/12/21 10:16:20;;;;;;;;;;;-0.60;99.90;;;-2.24;100.00;102301.66;2566440;30;139400;-38
2021/12/21 10:18:49;;;;;;;13.23;4.63;;;-0.50;99.90;;;-2.19;100.00;102308.44;2566704;30;137913;-38
2021/12/21 10:21:17;;;;;;;9.93;4.22;;;-0.50;99.90;;;-2.10;100.00;102308.84;2567844;30;138990;-37
2021/12/21 10:23:51;;;;;;;12.95;4.57;;;-0.40;99.90;;;-2.02;100.00;102304.72;2566524;30;137280;-38
2021/12/21 10:26:30;;;;;;;11.40;4.60;;;-0.30;99.90;;;-1.88;100.00;102298.53;2567802;30;137530;-38
2021/12/21 10:29:01;;;;;;;10.80;4.68;;;-0.20;99.90;;;-1.69;100.00;102291.19;2564867;30;137090;-38
2021/12/21 10:31:36;;;;;;;8.27;4.10;;;0.00;99.90;;;-1.57;100.00;102292.25;2566669;30;138148;-38
2021/12/21 10:34:10;;;;;;;11.25;4.55;;;0.10;99.90;;;-1.49;100.00;102282.75;2566608;30;136803;-38
2021/12/21 10:36:46;;;;;;;10.50;4.47;;;0.20;99.90;;;-1.40;100.00;102280.47;2568495;30;138317;-39
2021/12/21 10:39:32;;;;;;;14.15;4.60;;;0.30;99.90;;;-1.32;100.00;102275.47;2567896;30;137561;-38
2021/12/21 10:42:02;;;;;;;10.68;4.68;;;0.30;99.90;;;-1.25;100.00;102276.78;2568454;30;137769;-38
2021/12/21 10:44:29;;;;;;;12.85;5.35;;;0.50;99.90;;;-1.17;99.70;102278.97;2567329;30;139717;-38
2021/12/21 10:46:57;;;;;;;9.60;4.22;;;0.50;99.90;;;-1.05;98.23;102275.50;2565401;30;139495;-37
2021/12/21 10:49:34;;;;;;;9.38;3.78;;;0.60;99.90;;;-0.99;97.98;102271.53;2567509;30;137535;-38
2021/12/21 10:52:09;;;;;;;8.85;4.10;;;0.70;99.90;;;-0.91;96.77;102268.38;2568584;30;137928;-38
2021/12/21 10:54:46;;;;;;;9.00;4.32;;;0.80;99.90;;;-0.83;96.30;102268.72;2566772;30;138295;-38
2021/12/21 10:57:23;;;;;;;12.32;4.43;;;0.80;99.90;;;-0.76;95.43;102267.34;2567780;30;139106;-38
2021/12/21 10:59:56;;;;;;;11.27;4.50;;;0.90;99.90;;;-0.67;96.28;102257.81;2563651;30;138424;-37
2021/12/21 11:02:29;;;;;;;8.18;3.65;;;1.00;99.90;;;-0.60;95.57;102258.28;2568617;30;137351;-37
2021/12/21 11:05:15;;;;;;;7.53;3.92;;;1.10;99.90;;;-0.53;94.30;102250.69;2566263;30;137831;-38
2021/12/21 11:07:53;;;;;;;10.52;4.20;;;1.10;99.90;;;-0.44;95.10;102252.72;2567295;30;137445;-38
2021/12/21 11:10:30;;;;;;;11.48;4.40;;;1.20;99.90;;;-0.38;94.96;102248.75;2567201;30;137230;-38
2021/12/21 11:13:14;;;;;;;7.65;3.78;;;1.30;99.90;;;-0.31;94.60;102242.88;2567137;30;139252;-38
2021/12/21 11:15:53;;;;;;;9.52;3.55;;;1.40;99.90;;;-0.24;92.88;102243.31;2566963;30;137583;-38
2021/12/21 11:18:25;;;;;;;11.48;3.67;;;1.40;99.90;;;-0.19;92.62;102237.63;2565931;30;139203;-38
2021/12/21 11:20:56;;;;;;;10.20;4.07;;;1.50;99.90;;;-0.11;91.29;102226.34;2566963;30;138874;-38
2021/12/21 11:23:26;;;;;;;8.82;4.80;;;1.50;99.90;;;0.04;93.33;102236.03;2568152;30;138492;-38
2021/12/21 11:25:56;;;;;;;10.18;3.85;;;1.60;99.90;;;0.12;94.04;102233.63;2568328;30;137191;-38